Portada
METAR-TAF:

METAR-TAF

Aeropuertos :

Aeropuerto de León

León, España

latitud: 42-35N, longitud: 005-39W, altitud: 926 m

Observación

El informe se hizo hace 29 minutos, a las 12:30 UTC
Viento 19 kt del noreste con ráfagas de 31 kt, variando entre norte y este-noreste
Temperatura 4°C
Humedad 35%
Presión 1028 hPa
Visibilidad 10 km o más
Escasas nubes a una altura de 2000 ft

METAR: LELN 201230Z 04019G31KT 010V070 9999 FEW020 04/M10 Q1028

Hora: 13:59 (12:59 UTC)

Pronóstico

El informe se hizo hace 1 hora y 59 minutos, a las 11:00 UTC
Pronóstico válido del 20 a las 12 UTC al 20 a las 21 UTC
Viento 18 kt del norte-noreste
Visibilidad 10 km o más
Nubes dispersas a una altura de 2500 ft
Cielo nuboso a una altura de 4500 ft
Temporalmente
del 20 a las 12 UTC al 20 a las 18 UTC
Viento 25 kt del noreste con ráfagas de 35 kt

TAF: LELN 201100Z 2012/2021 03018KT 9999 SCT025 BKN045 TEMPO 2012/2018 04025G35KT

Observaciones y pronósticos meteorológicos de más de 4000 aeropuertos (mensajes METAR y TAF).

Los puntos amarillos y rojos representan las estaciones disponibles.

Ponga el ratón en el punto deseado para ver el nombre de la estación.

Haga clic para ver las observaciones y los pronósticos meteorológicos.

Para cambiar el mapa : haga clic en los botones verdes con una cruz de color negro para hacer un zoom, en el botón verde con un guión para alejar o en las flechas verdes para mapas adyacentes.


METAR-TAF: